createdAt,value
2018-09-09T00:00:08.146Z,6.00
2018-09-09T00:02:43.505Z,5.75
2018-09-09T00:05:18.608Z,6.83
2018-09-09T00:07:53.909Z,5.75
2018-09-09T00:10:29.406Z,6.72
2018-09-09T00:13:04.915Z,6.97
2018-09-09T00:15:40.405Z,6.03
2018-09-09T00:18:15.879Z,6.10
2018-09-09T00:20:51.219Z,6.12
2018-09-09T00:23:26.735Z,6.37
2018-09-09T00:26:02.331Z,6.30
2018-09-09T00:28:37.838Z,6.85
2018-09-09T00:31:13.256Z,6.25
2018-09-09T00:33:48.670Z,7.80
2018-09-09T00:36:24.226Z,7.15
2018-09-09T00:38:59.846Z,7.12
2018-09-09T00:41:35.176Z,6.75
2018-09-09T00:44:10.596Z,6.65
2018-09-09T00:46:46.447Z,6.95
2018-09-09T00:49:27.015Z,6.90
2018-09-09T00:52:07.440Z,6.42
2018-09-09T00:54:42.650Z,6.75
2018-09-09T00:57:17.959Z,5.55
2018-09-09T00:59:53.509Z,7.00
2018-09-09T01:02:28.999Z,6.45
2018-09-09T01:05:04.496Z,5.90
2018-09-09T01:07:39.926Z,5.95
2018-09-09T01:10:15.568Z,5.95
2018-09-09T01:12:51.036Z,6.05
2018-09-09T01:15:26.436Z,6.40
2018-09-09T01:18:01.879Z,5.80
2018-09-09T01:20:37.436Z,6.50
2018-09-09T01:23:12.845Z,5.95
2018-09-09T01:25:48.179Z,6.85
2018-09-09T01:28:23.574Z,6.40
2018-09-09T01:30:59.105Z,6.05
2018-09-09T01:33:34.429Z,6.30
2018-09-09T01:36:09.918Z,6.37
2018-09-09T01:38:45.359Z,5.33
2018-09-09T01:41:20.955Z,6.03
2018-09-09T01:43:56.579Z,6.22
2018-09-09T01:46:32.289Z,6.80
2018-09-09T01:49:07.899Z,6.65
2018-09-09T01:51:43.489Z,5.67
2018-09-09T01:54:19.078Z,6.03
2018-09-09T01:56:54.558Z,5.80
2018-09-09T01:59:30.056Z,6.20
2018-09-09T02:02:05.691Z,5.37
2018-09-09T02:04:41.179Z,6.05
2018-09-09T02:07:16.760Z,5.17
2018-09-09T02:09:52.125Z,5.58
2018-09-09T02:12:27.536Z,6.45
2018-09-09T02:15:03.135Z,5.78
2018-09-09T02:17:38.758Z,6.35
2018-09-09T02:20:14.217Z,6.42
2018-09-09T02:22:49.842Z,7.25
2018-09-09T02:25:25.179Z,6.15
2018-09-09T02:28:00.648Z,6.20
2018-09-09T02:30:36.166Z,6.83
2018-09-09T02:33:11.976Z,6.83
2018-09-09T02:35:47.667Z,6.80
2018-09-09T02:38:23.205Z,6.65
2018-09-09T02:40:58.629Z,6.55
2018-09-09T02:43:34.244Z,6.05
2018-09-09T02:46:09.555Z,5.47
2018-09-09T02:48:45.009Z,5.87
2018-09-09T02:51:20.416Z,6.70
2018-09-09T02:53:56.226Z,6.33
2018-09-09T02:56:31.695Z,7.10
2018-09-09T02:59:07.390Z,6.97
2018-09-09T03:01:42.790Z,6.92
2018-09-09T03:04:18.239Z,7.05
2018-09-09T03:06:53.559Z,8.10
2018-09-09T03:09:29.094Z,6.53
2018-09-09T03:12:04.615Z,6.80
2018-09-09T03:14:40.077Z,7.80
2018-09-09T03:17:15.334Z,7.87
2018-09-09T03:19:50.803Z,7.47
2018-09-09T03:22:26.155Z,7.12
2018-09-09T03:25:01.518Z,7.30
2018-09-09T03:27:36.798Z,8.05
2018-09-09T03:30:12.398Z,8.25
2018-09-09T03:32:47.817Z,9.13
2018-09-09T03:35:23.124Z,9.10
2018-09-09T03:37:58.499Z,8.50
2018-09-09T03:40:34.079Z,10.35
2018-09-09T03:43:09.358Z,10.78
2018-09-09T03:45:44.867Z,8.23
2018-09-09T03:48:20.439Z,8.35
2018-09-09T03:50:55.994Z,8.60
2018-09-09T03:53:31.445Z,9.00
2018-09-09T03:56:06.944Z,9.65
2018-09-09T03:58:42.396Z,8.88
2018-09-09T04:01:17.578Z,10.88
2018-09-09T04:03:52.970Z,9.85
2018-09-09T04:06:28.370Z,9.50
2018-09-09T04:09:04.705Z,9.40
2018-09-09T04:11:40.166Z,10.18
2018-09-09T04:14:15.647Z,10.78
2018-09-09T04:16:50.902Z,10.50
2018-09-09T04:19:26.275Z,11.18
2018-09-09T04:22:01.445Z,9.78
2018-09-09T04:24:36.899Z,11.28
2018-09-09T04:27:12.408Z,11.43
2018-09-09T04:29:47.728Z,10.58
2018-09-09T04:32:23.010Z,11.60
2018-09-09T04:34:58.429Z,11.18
2018-09-09T04:37:33.675Z,12.43
2018-09-09T04:40:09.170Z,11.10
2018-09-09T04:42:44.575Z,10.68
2018-09-09T04:45:19.806Z,12.43
2018-09-09T04:47:55.270Z,11.95
2018-09-09T04:50:30.577Z,12.37
2018-09-09T04:53:06.146Z,13.08
2018-09-09T04:55:41.506Z,11.35
2018-09-09T04:58:16.869Z,13.30
2018-09-09T05:00:52.671Z,10.85
2018-09-09T05:03:28.070Z,11.35
2018-09-09T05:06:03.490Z,12.15
2018-09-09T05:08:38.955Z,11.65
2018-09-09T05:11:14.486Z,12.45
2018-09-09T05:13:50.086Z,12.70
2018-09-09T05:16:25.488Z,11.73
2018-09-09T05:19:01.085Z,12.88
2018-09-09T05:21:36.425Z,12.93
2018-09-09T05:24:11.917Z,13.85
2018-09-09T05:26:47.245Z,13.13
2018-09-09T05:29:22.562Z,12.35
2018-09-09T05:31:57.735Z,11.55
2018-09-09T05:34:33.243Z,11.55
2018-09-09T05:37:08.814Z,13.45
2018-09-09T05:39:44.427Z,12.95
2018-09-09T05:42:19.685Z,11.85
2018-09-09T05:44:55.088Z,11.97
2018-09-09T05:47:30.448Z,11.05
2018-09-09T05:50:05.936Z,12.55
2018-09-09T05:52:41.611Z,10.75
2018-09-09T05:55:17.382Z,12.47
2018-09-09T05:57:52.975Z,12.82
2018-09-09T06:00:28.392Z,11.70
2018-09-09T06:03:03.926Z,11.00
2018-09-09T06:05:39.485Z,12.68
2018-09-09T06:08:14.885Z,12.35
2018-09-09T06:10:55.017Z,11.75
2018-09-09T06:13:30.371Z,11.53
2018-09-09T06:16:05.710Z,11.22
2018-09-09T06:18:40.989Z,11.90
2018-09-09T06:21:16.425Z,11.55
2018-09-09T06:23:51.808Z,11.40
2018-09-09T06:26:27.107Z,10.88
2018-09-09T06:29:02.667Z,10.05
2018-09-09T06:31:38.271Z,10.82
2018-09-09T06:34:13.908Z,9.60
2018-09-09T06:36:49.568Z,10.13
2018-09-09T06:39:24.812Z,9.73
2018-09-09T06:42:00.140Z,8.45
2018-09-09T06:44:35.518Z,9.28
2018-09-09T06:47:11.015Z,9.30
2018-09-09T06:49:46.400Z,9.20
2018-09-09T06:52:21.628Z,7.47
2018-09-09T06:54:57.120Z,7.28
2018-09-09T06:57:32.545Z,7.80
2018-09-09T07:00:07.939Z,8.18
2018-09-09T07:02:43.288Z,8.10
2018-09-09T07:05:18.578Z,7.47
2018-09-09T07:07:54.078Z,7.63
2018-09-09T07:10:29.389Z,6.63
2018-09-09T07:13:04.682Z,7.00
2018-09-09T07:15:39.938Z,7.70
2018-09-09T07:18:15.299Z,7.10
2018-09-09T07:20:50.511Z,6.50
2018-09-09T07:23:26.227Z,6.57
2018-09-09T07:26:01.808Z,6.63
2018-09-09T07:28:37.482Z,5.70
2018-09-09T07:31:12.938Z,7.17
2018-09-09T07:33:48.379Z,7.63
2018-09-09T07:36:23.949Z,6.23
2018-09-09T07:38:59.425Z,6.20
2018-09-09T07:41:34.797Z,5.20
2018-09-09T07:44:10.218Z,6.93
2018-09-09T07:46:45.446Z,6.10
2018-09-09T07:49:20.853Z,5.45
2018-09-09T07:51:56.299Z,5.23
2018-09-09T07:54:31.604Z,6.17
2018-09-09T07:57:06.792Z,6.03
2018-09-09T07:59:42.167Z,5.73
2018-09-09T08:02:17.321Z,5.80
2018-09-09T08:04:52.699Z,5.90
2018-09-09T08:07:28.019Z,5.80
2018-09-09T08:10:03.475Z,5.70
2018-09-09T08:12:38.817Z,5.33
2018-09-09T08:15:14.396Z,5.50
2018-09-09T08:17:49.742Z,6.37
2018-09-09T08:20:25.100Z,5.80
2018-09-09T08:23:00.537Z,5.70
2018-09-09T08:25:35.720Z,5.80
2018-09-09T08:28:11.046Z,6.40
2018-09-09T08:30:46.269Z,6.07
2018-09-09T08:33:21.671Z,5.10
2018-09-09T08:35:57.029Z,6.43
2018-09-09T08:38:32.566Z,5.90
2018-09-09T08:41:08.327Z,5.10
2018-09-09T08:43:43.526Z,4.80
2018-09-09T08:46:19.036Z,5.53
2018-09-09T08:48:54.466Z,5.50
2018-09-09T08:51:29.817Z,4.97
2018-09-09T08:54:05.299Z,5.50
2018-09-09T08:56:40.926Z,4.60
2018-09-09T08:59:16.326Z,5.40
2018-09-09T09:01:52.032Z,7.03
2018-09-09T09:04:27.741Z,6.37
2018-09-09T09:07:03.189Z,5.47
2018-09-09T09:09:38.566Z,5.90
2018-09-09T09:12:13.987Z,6.20
2018-09-09T09:14:49.465Z,6.30
2018-09-09T09:17:24.669Z,7.27
2018-09-09T09:20:00.107Z,6.93
2018-09-09T09:22:35.810Z,7.10
2018-09-09T09:25:11.239Z,6.97
2018-09-09T09:27:46.674Z,7.30
2018-09-09T09:30:22.269Z,7.20
2018-09-09T09:32:57.706Z,6.70
2018-09-09T09:35:38.467Z,8.07
2018-09-09T09:38:14.036Z,7.60
2018-09-09T09:40:49.798Z,7.50
2018-09-09T09:43:25.357Z,6.87
2018-09-09T09:46:00.794Z,6.50
2018-09-09T09:48:36.164Z,6.50
2018-09-09T09:51:11.656Z,6.80
2018-09-09T09:53:47.049Z,6.40
2018-09-09T09:56:22.531Z,6.07
2018-09-09T09:58:57.949Z,7.83
2018-09-09T10:01:33.925Z,5.80
2018-09-09T10:04:09.356Z,6.13
2018-09-09T10:06:44.691Z,5.30
2018-09-09T10:09:20.189Z,5.83
2018-09-09T10:11:55.699Z,5.70
2018-09-09T10:14:31.080Z,4.87
2018-09-09T10:17:06.934Z,5.40
2018-09-09T10:19:42.369Z,5.73
2018-09-09T10:22:17.675Z,5.87
2018-09-09T10:24:53.121Z,5.77
2018-09-09T10:27:28.645Z,5.17
2018-09-09T10:30:04.017Z,5.57
2018-09-09T10:32:39.596Z,4.50
2018-09-09T10:35:14.827Z,4.67
2018-09-09T10:37:50.046Z,5.30
2018-09-09T10:40:25.388Z,5.30
2018-09-09T10:43:00.890Z,5.90
2018-09-09T10:45:36.431Z,4.60
2018-09-09T10:48:11.789Z,4.07
2018-09-09T10:50:47.226Z,4.77
2018-09-09T10:53:22.629Z,4.23
2018-09-09T10:55:57.901Z,4.30
2018-09-09T10:58:33.666Z,4.70
2018-09-09T11:01:09.119Z,4.43
2018-09-09T11:03:44.487Z,4.30
2018-09-09T11:06:19.817Z,5.03
2018-09-09T11:08:55.296Z,4.83
2018-09-09T11:11:30.789Z,4.40
2018-09-09T11:14:06.085Z,5.23
2018-09-09T11:16:41.750Z,3.90
2018-09-09T11:19:17.221Z,4.00
2018-09-09T11:21:52.669Z,3.67
2018-09-09T11:24:28.151Z,4.03
2018-09-09T11:27:03.437Z,3.83
2018-09-09T11:29:38.737Z,4.20
2018-09-09T11:32:14.358Z,4.13
2018-09-09T11:34:49.649Z,4.33
2018-09-09T11:37:25.029Z,4.80
2018-09-09T11:40:00.289Z,4.30
2018-09-09T11:42:35.828Z,4.80
2018-09-09T11:45:11.469Z,4.10
2018-09-09T11:47:46.966Z,3.60
2018-09-09T11:50:22.640Z,4.20
2018-09-09T11:52:57.992Z,4.50
2018-09-09T11:55:33.426Z,3.30
2018-09-09T11:58:09.019Z,3.40
2018-09-09T12:00:44.546Z,3.70
2018-09-09T12:03:19.756Z,3.77
2018-09-09T12:05:55.089Z,3.80
2018-09-09T12:08:30.478Z,3.27
2018-09-09T12:11:05.845Z,4.37
2018-09-09T12:13:41.500Z,3.30
2018-09-09T12:16:17.029Z,3.13
2018-09-09T12:18:52.689Z,3.70
2018-09-09T12:21:28.176Z,3.73
2018-09-09T12:24:03.663Z,3.40
2018-09-09T12:26:39.130Z,3.63
2018-09-09T12:29:14.575Z,3.70
2018-09-09T12:31:49.916Z,3.57
2018-09-09T12:34:25.308Z,3.43
2018-09-09T12:37:00.721Z,3.20
2018-09-09T12:39:36.174Z,3.37
2018-09-09T12:42:11.896Z,2.20
2018-09-09T12:44:52.538Z,2.30
2018-09-09T12:47:33.089Z,3.03
2018-09-09T12:50:08.466Z,2.80
2018-09-09T12:52:43.731Z,2.80
2018-09-09T12:55:19.079Z,2.97
2018-09-09T12:57:54.486Z,2.40
2018-09-09T13:00:29.984Z,2.60
2018-09-09T13:03:05.625Z,2.83
2018-09-09T13:05:40.989Z,2.97
2018-09-09T13:08:16.474Z,2.90
2018-09-09T13:10:51.891Z,2.40
2018-09-09T13:13:27.427Z,3.23
2018-09-09T13:16:02.865Z,2.60
2018-09-09T13:18:38.104Z,2.40
2018-09-09T13:21:13.439Z,2.03
2018-09-09T13:23:48.916Z,1.93
2018-09-09T13:26:24.151Z,1.90
2018-09-09T13:29:00.137Z,1.90
2018-09-09T13:31:35.359Z,2.10
2018-09-09T13:34:11.028Z,2.40
2018-09-09T13:36:46.425Z,1.97
2018-09-09T13:39:21.928Z,2.00
2018-09-09T13:41:57.450Z,2.10
2018-09-09T13:44:32.919Z,1.63
2018-09-09T13:47:08.623Z,2.00
2018-09-09T13:49:44.030Z,1.80
2018-09-09T13:52:19.545Z,2.00
2018-09-09T13:54:54.825Z,1.80
2018-09-09T13:57:30.270Z,1.50
2018-09-09T14:00:05.849Z,1.70
2018-09-09T14:02:41.380Z,1.63
2018-09-09T14:05:16.826Z,1.63
2018-09-09T14:07:53.172Z,1.50
2018-09-09T14:10:28.546Z,1.50
2018-09-09T14:13:04.201Z,2.40
2018-09-09T14:15:39.869Z,1.87
2018-09-09T14:18:15.220Z,1.57
2018-09-09T14:20:50.711Z,1.90
2018-09-09T14:23:26.320Z,1.60
2018-09-09T14:26:01.928Z,1.87
2018-09-09T14:28:37.430Z,1.90
2018-09-09T14:31:12.825Z,1.93
2018-09-09T14:33:48.667Z,1.90
2018-09-09T14:36:24.323Z,1.50
2018-09-09T14:39:00.607Z,1.93
2018-09-09T14:41:35.888Z,1.40
2018-09-09T14:44:11.198Z,2.20
2018-09-09T14:46:46.545Z,1.60
2018-09-09T14:49:24.909Z,2.00
2018-09-09T14:52:00.372Z,1.90
2018-09-09T14:54:36.068Z,2.20
2018-09-09T14:57:11.458Z,1.80
2018-09-09T14:59:47.147Z,1.93
2018-09-09T15:02:22.638Z,2.00
2018-09-09T15:04:58.442Z,2.27
2018-09-09T15:07:33.978Z,1.83
2018-09-09T15:10:09.565Z,2.23
2018-09-09T15:12:45.108Z,2.33
2018-09-09T15:15:20.622Z,1.97
2018-09-09T15:17:56.204Z,2.57
2018-09-09T15:20:31.778Z,2.03
2018-09-09T15:23:07.108Z,2.50
2018-09-09T15:25:42.345Z,2.27
2018-09-09T15:28:17.810Z,2.33
2018-09-09T15:30:53.043Z,2.37
2018-09-09T15:33:28.285Z,2.00
2018-09-09T15:36:03.731Z,3.67
2018-09-09T15:38:39.317Z,2.43
2018-09-09T15:41:15.074Z,2.20
2018-09-09T15:43:52.246Z,2.20
2018-09-09T15:46:28.308Z,2.30
2018-09-09T15:49:03.655Z,3.63
2018-09-09T15:51:39.122Z,2.70
2018-09-09T15:54:14.477Z,3.07
2018-09-09T15:56:50.037Z,2.40
2018-09-09T15:59:25.647Z,2.60
2018-09-09T16:02:01.017Z,3.70
2018-09-09T16:04:36.355Z,2.30
2018-09-09T16:07:11.950Z,3.07
2018-09-09T16:09:47.351Z,2.43
2018-09-09T16:12:22.627Z,2.47
2018-09-09T16:14:57.786Z,2.80
2018-09-09T16:17:33.115Z,2.60
2018-09-09T16:20:08.948Z,2.63
2018-09-09T16:22:44.634Z,2.73
2018-09-09T16:25:19.808Z,2.43
2018-09-09T16:27:55.318Z,2.80
2018-09-09T16:30:30.670Z,2.73
2018-09-09T16:33:06.157Z,3.30
2018-09-09T16:35:41.796Z,2.70
2018-09-09T16:38:17.037Z,3.13
2018-09-09T16:40:52.375Z,3.10
2018-09-09T16:43:27.648Z,3.00
2018-09-09T16:46:03.276Z,3.20
2018-09-09T16:48:38.726Z,3.37
2018-09-09T16:51:14.285Z,3.07
2018-09-09T16:53:49.919Z,5.57
2018-09-09T16:56:25.267Z,2.73
2018-09-09T16:59:00.830Z,2.90
2018-09-09T17:01:36.155Z,2.90
2018-09-09T17:04:11.560Z,3.10
2018-09-09T17:06:47.077Z,2.63
2018-09-09T17:09:22.667Z,3.20
2018-09-09T17:11:58.319Z,2.60
2018-09-09T17:14:33.952Z,2.57
2018-09-09T17:17:09.404Z,2.97
2018-09-09T17:19:44.668Z,3.20
2018-09-09T17:22:19.998Z,3.57
2018-09-09T17:24:55.448Z,2.20
2018-09-09T17:27:30.904Z,2.70
2018-09-09T17:30:06.570Z,3.33
2018-09-09T17:32:42.099Z,3.03
2018-09-09T17:35:17.568Z,3.40
2018-09-09T17:37:52.997Z,3.20
2018-09-09T17:40:28.279Z,3.27
2018-09-09T17:43:03.752Z,3.70
2018-09-09T17:45:39.055Z,2.67
2018-09-09T17:48:14.608Z,5.03
2018-09-09T17:50:49.909Z,3.83
2018-09-09T17:53:25.439Z,3.70
2018-09-09T17:56:00.945Z,3.30
2018-09-09T17:58:36.421Z,3.10
2018-09-09T18:01:11.969Z,2.93
2018-09-09T18:03:47.358Z,3.50
2018-09-09T18:06:22.735Z,3.23
2018-09-09T18:08:58.398Z,3.83
2018-09-09T18:11:33.777Z,3.73
2018-09-09T18:14:09.265Z,3.87
2018-09-09T18:16:44.729Z,3.70
2018-09-09T18:19:20.208Z,3.87
2018-09-09T18:21:55.396Z,3.40
2018-09-09T18:24:30.718Z,3.37
2018-09-09T18:27:06.219Z,3.43
2018-09-09T18:29:41.590Z,3.90
2018-09-09T18:32:17.032Z,2.90
2018-09-09T18:34:52.638Z,3.50
2018-09-09T18:37:27.920Z,3.47
2018-09-09T18:40:03.108Z,3.53
2018-09-09T18:42:38.406Z,3.40
2018-09-09T18:45:13.817Z,3.30
2018-09-09T18:47:49.234Z,3.87
2018-09-09T18:50:24.808Z,3.60
2018-09-09T18:53:00.374Z,3.23
2018-09-09T18:55:35.889Z,3.67
2018-09-09T18:58:11.465Z,3.30
2018-09-09T19:00:47.295Z,3.30
2018-09-09T19:03:22.608Z,3.70
2018-09-09T19:05:58.098Z,3.67
2018-09-09T19:08:33.381Z,3.97
2018-09-09T19:11:08.799Z,4.40
2018-09-09T19:13:44.099Z,4.60
2018-09-09T19:16:19.399Z,4.03
2018-09-09T19:18:54.920Z,4.80
2018-09-09T19:21:30.458Z,4.87
2018-09-09T19:24:05.916Z,4.87
2018-09-09T19:26:41.456Z,4.57
2018-09-09T19:29:17.216Z,3.83
2018-09-09T19:31:53.716Z,4.20
2018-09-09T19:34:29.211Z,4.10
2018-09-09T19:37:05.039Z,4.60
2018-09-09T19:39:40.595Z,4.47
2018-09-09T19:42:16.249Z,4.57
2018-09-09T19:44:51.727Z,4.70
2018-09-09T19:47:27.353Z,5.28
2018-09-09T19:50:03.776Z,4.53
2018-09-09T19:52:39.375Z,5.03
2018-09-09T19:55:14.767Z,5.27
2018-09-09T19:57:50.229Z,4.93
2018-09-09T20:00:25.756Z,5.03
2018-09-09T20:03:01.178Z,5.08
2018-09-09T20:05:36.699Z,6.15
2018-09-09T20:08:12.194Z,4.78
2018-09-09T20:10:47.708Z,5.10
2018-09-09T20:13:23.258Z,5.50
2018-09-09T20:15:58.677Z,4.72
2018-09-09T20:18:34.146Z,5.78
2018-09-09T20:21:09.878Z,4.90
2018-09-09T20:23:46.555Z,5.03
2018-09-09T20:26:21.957Z,4.47
2018-09-09T20:28:57.119Z,4.40
2018-09-09T20:31:32.475Z,5.33
2018-09-09T20:34:07.801Z,5.83
2018-09-09T20:36:43.480Z,5.78
2018-09-09T20:39:18.925Z,4.80
2018-09-09T20:41:54.357Z,5.00
2018-09-09T20:44:29.735Z,6.20
2018-09-09T20:47:05.157Z,5.70
2018-09-09T20:49:40.437Z,5.80
2018-09-09T20:52:15.678Z,5.35
2018-09-09T20:54:51.045Z,5.85
2018-09-09T20:57:26.442Z,5.20
2018-09-09T21:00:01.789Z,5.17
2018-09-09T21:02:37.049Z,6.17
2018-09-09T21:05:12.448Z,5.00
2018-09-09T21:07:47.898Z,4.67
2018-09-09T21:10:23.519Z,5.30
2018-09-09T21:12:59.088Z,4.43
2018-09-09T21:15:34.770Z,5.10
2018-09-09T21:18:10.131Z,4.80
2018-09-09T21:20:45.502Z,4.47
2018-09-09T21:23:20.935Z,5.83
2018-09-09T21:25:56.447Z,4.97
2018-09-09T21:28:31.687Z,5.23
2018-09-09T21:31:07.325Z,5.57
2018-09-09T21:33:43.038Z,4.87
2018-09-09T21:36:18.380Z,5.50
2018-09-09T21:38:53.978Z,5.67
2018-09-09T21:41:29.267Z,5.50
2018-09-09T21:44:04.675Z,4.62
2018-09-09T21:46:40.323Z,4.90
2018-09-09T21:49:15.686Z,4.97
2018-09-09T21:51:50.969Z,5.17
2018-09-09T21:54:26.255Z,4.57
2018-09-09T21:57:01.595Z,5.07
2018-09-09T21:59:37.119Z,4.53
2018-09-09T22:02:14.287Z,4.20
2018-09-09T22:04:49.699Z,4.07
2018-09-09T22:07:25.105Z,5.03
2018-09-09T22:10:00.488Z,4.17
2018-09-09T22:12:35.908Z,4.13
2018-09-09T22:15:11.303Z,4.03
2018-09-09T22:17:46.628Z,3.90
2018-09-09T22:20:22.063Z,4.70
2018-09-09T22:22:57.417Z,4.00
2018-09-09T22:25:32.838Z,4.72
2018-09-09T22:28:08.315Z,4.30
2018-09-09T22:30:43.678Z,4.80
2018-09-09T22:33:19.015Z,4.45
2018-09-09T22:35:54.418Z,4.27
2018-09-09T22:38:29.730Z,3.75
2018-09-09T22:41:05.426Z,4.10
2018-09-09T22:43:40.790Z,4.13
2018-09-09T22:46:16.245Z,4.63
2018-09-09T22:48:51.784Z,4.65
2018-09-09T22:51:27.011Z,4.85
2018-09-09T22:54:02.698Z,6.47
2018-09-09T22:56:37.897Z,6.05
2018-09-09T22:59:13.435Z,4.57
2018-09-09T23:01:48.914Z,4.15
2018-09-09T23:04:24.266Z,4.10
2018-09-09T23:06:59.795Z,5.07
2018-09-09T23:09:35.255Z,5.27
2018-09-09T23:12:10.591Z,4.10
2018-09-09T23:14:46.174Z,4.00
2018-09-09T23:17:21.948Z,4.30
2018-09-09T23:19:57.538Z,4.30
2018-09-09T23:22:33.028Z,4.43
2018-09-09T23:25:08.339Z,3.90
2018-09-09T23:27:43.670Z,4.08
2018-09-09T23:30:19.248Z,4.57
2018-09-09T23:32:54.728Z,3.62
2018-09-09T23:35:30.126Z,4.40
2018-09-09T23:38:05.648Z,4.70
2018-09-09T23:40:40.778Z,4.22
2018-09-09T23:43:16.408Z,3.98
2018-09-09T23:45:51.799Z,4.17
2018-09-09T23:48:27.239Z,4.42
2018-09-09T23:51:02.908Z,3.85
2018-09-09T23:53:38.418Z,4.12
2018-09-09T23:56:13.838Z,3.95
2018-09-09T23:58:49.321Z,4.00
